Terminal Aerodrome Forecast
Issued by NWS

Home | Current Version | Previous Version | Graphics & Text | Print | Product List | Glossary On
Versions: 1 2 3 4 5 6 7 8 9 10 11 12 13 14
292
FTUS45 KGGW 291728
TAFSDY
TAF
KSDY 291728Z 2918/3018 19004KT P6SM SCT006 BKN100
     FM292200 00000KT P6SM SCT110=

USA.gov is the U.S. government's official web portal to all federal, state and local government web resources and services.